Leibhardt, New York
Current Conditions -  °F | °C
As of 8:54 AM on Friday 28 Nov 2014 (Local Time) from KMGJ Reporting Station
Clear Clear  
Wind Chill: 19°   Ceiling: Unl
Heat Index: 29°   Visibility: 10mi
Dew Point: 19°   Wind: 12mph
Humidity: 67%   Direction: 310°NW
Pressure: 30.15"   Gusts: NA
Location:  41.8083°N, 74.2318°W
Report Text: KMGJ 281354Z AUTO 31010KT 10SM CLR M02/M07 A3015 RMK AO2 SLP215 T10171072 TSNO $
Loading
Personal Weather Stations






























Interactive Weather Map New forecast layout! Learn more

10-Day Weather Forecast

Advertisements
Track Severe Weather on mobile